Time;durP1;ratioP1;P1;durP2;ratioP2;P2;SDS_P1;SDS_P2;PMS_P1;PMS_P2;Temp;Humidity;BMP_temperature;BMP_pressure;BME280_temperature;BME280_humidity;BME280_pressure;Samples;Min_cycle;Max_cycle;Signal;HPM_P1;HPM_P2
2022/04/14 00:01:13;;;;;;;12.23;5.38;;;10.20;99.90;;;;;;5008711;28;20076;-72
2022/04/14 00:03:40;;;;;;;15.80;6.22;;;10.10;99.90;;;;;;5008406;28;20072;-72
2022/04/14 00:06:06;;;;;;;12.30;5.32;;;10.10;99.90;;;;;;5026249;28;20056;-72
2022/04/14 00:08:32;;;;;;;12.43;5.93;;;10.00;99.90;;;;;;5025126;28;20030;-71
2022/04/14 00:10:57;;;;;;;12.98;5.55;;;10.00;99.90;;;;;;5008590;28;20049;-72
2022/04/14 00:13:23;;;;;;;15.27;5.90;;;9.90;99.90;;;;;;5038497;28;20032;-72
2022/04/14 00:15:49;;;;;;;12.88;5.70;;;9.80;99.90;;;;;;5024209;28;20076;-71
2022/04/14 00:18:15;;;;;;;18.42;7.00;;;9.60;99.90;;;;;;5025084;28;20029;-72
2022/04/14 00:20:40;;;;;;;11.82;6.25;;;9.50;99.90;;;;;;5008773;28;20030;-72
2022/04/14 00:23:06;;;;;;;15.82;6.63;;;9.50;99.90;;;;;;5024621;28;20045;-72
2022/04/14 00:25:32;;;;;;;17.65;6.82;;;9.40;99.90;;;;;;4991906;28;20092;-72
2022/04/14 00:27:57;;;;;;;13.63;6.05;;;9.40;99.90;;;;;;4990272;28;20285;-72
2022/04/14 00:30:23;;;;;;;15.73;5.80;;;9.50;99.90;;;;;;5024678;28;20068;-72
2022/04/14 00:32:49;;;;;;;14.65;6.15;;;9.40;99.90;;;;;;5008266;28;20025;-73
2022/04/14 00:35:15;;;;;;;19.88;7.07;;;9.40;99.90;;;;;;5024299;28;20264;-72
2022/04/14 00:37:41;;;;;;;20.48;6.60;;;9.40;99.90;;;;;;5008116;28;20101;-72
2022/04/14 00:40:07;;;;;;;14.63;6.63;;;9.40;99.90;;;;;;5007897;28;20245;-72
2022/04/14 00:42:33;;;;;;;16.25;7.20;;;9.40;99.90;;;;;;5024095;28;20018;-72
2022/04/14 00:44:59;;;;;;;18.98;6.78;;;9.40;99.90;;;;;;5023864;28;20034;-72
2022/04/14 00:47:25;;;;;;;15.85;6.68;;;9.40;99.90;;;;;;5017433;28;20213;-71
2022/04/14 00:49:51;;;;;;;16.52;7.15;;;9.40;99.90;;;;;;5008125;28;20032;-71
2022/04/14 00:52:16;;;;;;;16.58;7.10;;;9.30;99.90;;;;;;5023741;28;20018;-71
2022/04/14 00:54:43;;;;;;;20.20;7.20;;;9.30;99.90;;;;;;5007623;28;20054;-72
2022/04/14 00:57:09;;;;;;;16.70;6.72;;;9.40;99.90;;;;;;5026808;28;20040;-71
2022/04/14 00:59:34;;;;;;;17.13;6.93;;;9.50;99.90;;;;;;5044857;28;20085;-71
2022/04/14 01:02:00;;;;;;;19.05;6.93;;;9.50;99.90;;;;;;5043751;28;20071;-71
2022/04/14 01:04:27;;;;;;;17.42;7.22;;;9.40;99.90;;;;;;5027237;28;20017;-71
2022/04/14 01:06:53;;;;;;;15.25;6.50;;;9.40;99.90;;;;;;5043286;28;20308;-71
2022/04/14 01:09:19;;;;;;;16.20;6.82;;;9.40;99.90;;;;;;5026985;28;20021;-72
2022/04/14 01:11:48;;;;;;;15.80;6.75;;;9.30;99.90;;;;;;5039653;28;20020;-71
2022/04/14 01:14:34;;;;;;;18.05;6.38;;;9.20;99.90;;;;;;5039810;28;20030;-71
2022/04/14 01:17:04;;;;;;;10.65;6.03;;;9.20;99.90;;;;;;5006999;28;20044;-71
2022/04/14 01:19:30;;;;;;;14.50;6.13;;;9.20;99.90;;;;;;5022863;28;20021;-71
2022/04/14 01:22:20;;;;;;;15.20;6.18;;;9.20;99.90;;;;;;5006878;28;20018;-71
2022/04/14 01:24:47;;;;;;;14.85;6.93;;;9.20;99.90;;;;;;5023325;28;20026;-72
2022/04/14 01:27:13;;;;;;;13.05;6.15;;;9.10;99.90;;;;;;5023419;28;20231;-71
2022/04/14 01:29:38;;;;;;;12.35;6.28;;;9.00;99.90;;;;;;5038684;28;20033;-72
2022/04/14 01:32:05;;;;;;;12.70;6.15;;;9.00;99.90;;;;;;5006872;28;20018;-71
2022/04/14 01:34:31;;;;;;;15.38;6.65;;;9.00;99.90;;;;;;5034839;28;20021;-72
2022/04/14 01:36:58;;;;;;;15.15;6.22;;;9.00;99.90;;;;;;5009780;28;20029;-72
2022/04/14 01:39:25;;;;;;;15.98;5.78;;;9.00;99.90;;;;;;5044481;28;20025;-71
2022/04/14 01:41:50;;;;;;;13.05;6.03;;;8.90;99.90;;;;;;5042820;28;20251;-72
2022/04/14 01:44:16;;;;;;;13.70;5.95;;;9.00;99.90;;;;;;5010213;28;20029;-73
2022/04/14 01:46:42;;;;;;;12.45;6.05;;;9.00;99.90;;;;;;5042116;28;20212;-71
2022/04/14 01:49:09;;;;;;;19.88;6.40;;;8.90;99.90;;;;;;5026233;28;20021;-72
2022/04/14 01:51:35;;;;;;;17.02;6.65;;;8.90;99.90;;;;;;5043026;28;20044;-72
2022/04/14 01:54:01;;;;;;;17.20;6.40;;;8.80;99.90;;;;;;5041969;28;20060;-71
2022/04/14 01:56:27;;;;;;;9.68;5.93;;;8.80;99.90;;;;;;5044130;28;20037;-72
2022/04/14 01:58:53;;;;;;;13.35;6.13;;;8.80;99.90;;;;;;5022710;28;20041;-72
2022/04/14 02:01:19;;;;;;;14.23;6.22;;;8.70;99.90;;;;;;5006616;28;20029;-71
2022/04/14 02:03:45;;;;;;;14.48;6.32;;;8.70;99.90;;;;;;5023218;28;20388;-72
2022/04/14 02:06:11;;;;;;;12.90;6.05;;;8.70;99.90;;;;;;5022727;28;20018;-71
2022/04/14 02:08:37;;;;;;;14.63;6.65;;;8.70;99.90;;;;;;5022661;28;20028;-72
2022/04/14 02:11:03;;;;;;;16.02;6.65;;;8.60;99.90;;;;;;5022866;28;20072;-71
2022/04/14 02:13:30;;;;;;;17.70;6.47;;;8.60;99.90;;;;;;5040888;28;20025;-72
2022/04/14 02:15:56;;;;;;;14.38;6.13;;;8.60;99.90;;;;;;5042018;28;20033;-72
2022/04/14 02:18:21;;;;;;;14.85;6.72;;;8.60;99.90;;;;;;5042642;28;20021;-71
2022/04/14 02:20:47;;;;;;;13.95;6.82;;;8.60;99.90;;;;;;5042170;28;20017;-71
2022/04/14 02:23:13;;;;;;;13.18;6.68;;;8.60;99.90;;;;;;5042573;28;20071;-71
2022/04/14 02:25:39;;;;;;;12.45;6.10;;;8.60;99.90;;;;;;5043651;28;20088;-71
2022/04/14 02:28:05;;;;;;;14.85;6.75;;;8.50;99.90;;;;;;5026054;28;20229;-72
2022/04/14 02:30:32;;;;;;;12.18;6.30;;;8.40;99.90;;;;;;5024535;28;20045;-72
2022/04/14 02:32:58;;;;;;;16.27;6.90;;;8.40;99.90;;;;;;5043531;28;20081;-72
2022/04/14 02:35:25;;;;;;;14.65;6.57;;;8.40;99.90;;;;;;5041990;28;20068;-71
2022/04/14 02:37:50;;;;;;;13.68;6.50;;;8.40;99.90;;;;;;5025637;28;20129;-71
2022/04/14 02:40:16;;;;;;;17.75;6.53;;;8.40;99.90;;;;;;5043727;28;20022;-72
2022/04/14 02:42:43;;;;;;;14.60;5.65;;;8.40;99.90;;;;;;5043443;28;20081;-71
2022/04/14 02:45:09;;;;;;;15.90;6.55;;;8.40;99.90;;;;;;5009638;28;20022;-72
2022/04/14 02:47:35;;;;;;;11.40;6.20;;;8.40;99.90;;;;;;5043104;28;20017;-71
2022/04/14 02:50:02;;;;;;;13.25;6.72;;;8.40;99.90;;;;;;5042292;28;20028;-71
2022/04/14 02:52:29;;;;;;;11.80;6.15;;;8.30;99.90;;;;;;5041448;28;20124;-71
2022/04/14 02:54:54;;;;;;;15.93;6.63;;;8.30;99.90;;;;;;5043153;28;20029;-71
2022/04/14 02:57:20;;;;;;;12.75;6.07;;;8.20;99.90;;;;;;5022277;28;20014;-71
2022/04/14 02:59:46;;;;;;;12.60;5.80;;;8.30;99.90;;;;;;5023715;28;20022;-71
2022/04/14 03:02:11;;;;;;;15.45;6.05;;;8.30;99.90;;;;;;5022350;28;20029;-72
2022/04/14 03:04:37;;;;;;;12.57;5.90;;;8.30;99.90;;;;;;5006181;28;20048;-71
2022/04/14 03:07:03;;;;;;;14.18;6.03;;;8.30;99.90;;;;;;5007127;28;20029;-71
2022/04/14 03:09:29;;;;;;;14.35;6.50;;;8.30;99.90;;;;;;5009687;28;20369;-71
2022/04/14 03:11:55;;;;;;;14.38;6.40;;;8.20;99.90;;;;;;5030718;28;20021;-73
2022/04/14 03:14:20;;;;;;;11.57;6.40;;;8.10;99.90;;;;;;5029361;28;20037;-72
2022/04/14 03:16:46;;;;;;;15.23;6.80;;;8.10;99.90;;;;;;5045638;28;20092;-71
2022/04/14 03:19:12;;;;;;;12.25;6.30;;;8.10;99.90;;;;;;5029485;28;20045;-71
2022/04/14 03:21:37;;;;;;;12.18;6.78;;;8.00;99.90;;;;;;5028807;28;20045;-72
2022/04/14 03:24:03;;;;;;;12.77;6.00;;;8.00;99.90;;;;;;5046158;28;20022;-71
2022/04/14 03:26:29;;;;;;;15.60;6.00;;;8.00;99.90;;;;;;5047101;28;20216;-71
2022/04/14 03:28:55;;;;;;;11.63;6.63;;;8.00;99.90;;;;;;5045745;28;20032;-71
2022/04/14 03:31:20;;;;;;;15.02;7.10;;;8.00;99.90;;;;;;5027410;28;20033;-71
2022/04/14 03:33:46;;;;;;;11.00;6.25;;;8.00;99.90;;;;;;5044945;28;20049;-71
2022/04/14 03:36:12;;;;;;;13.65;6.82;;;7.90;99.90;;;;;;5012741;28;20066;-71
2022/04/14 03:38:37;;;;;;;13.13;6.35;;;7.90;99.90;;;;;;5012658;28;20363;-71
2022/04/14 03:41:05;;;;;;;10.93;5.85;;;7.90;99.90;;;;;;5045476;28;20029;-71
2022/04/14 03:43:32;;;;;;;15.32;6.38;;;8.00;99.90;;;;;;5045266;28;20025;-71
2022/04/14 03:45:58;;;;;;;10.13;5.75;;;8.00;99.90;;;;;;5028237;28;20339;-71
2022/04/14 03:48:23;;;;;;;10.85;5.53;;;8.00;99.90;;;;;;5028980;28;20092;-71
2022/04/14 03:50:49;;;;;;;13.25;6.75;;;8.10;99.90;;;;;;5012570;28;20025;-72
2022/04/14 03:53:17;;;;;;;12.10;6.15;;;8.10;99.90;;;;;;5011856;28;20049;-71
2022/04/14 03:55:43;;;;;;;7.68;4.93;;;8.20;99.90;;;;;;5044962;28;20324;-71
2022/04/14 03:58:08;;;;;;;16.67;5.50;;;8.30;99.90;;;;;;5012127;28;20033;-72
2022/04/14 04:00:34;;;;;;;9.82;5.25;;;8.30;99.90;;;;;;5027941;28;20021;-72
2022/04/14 04:03:00;;;;;;;11.95;5.43;;;8.40;99.90;;;;;;5028499;28;20118;-71
2022/04/14 04:05:26;;;;;;;13.80;5.78;;;8.50;99.90;;;;;;5044772;28;20025;-72
2022/04/14 04:07:52;;;;;;;9.25;5.70;;;8.60;99.90;;;;;;5028175;28;20096;-71
2022/04/14 04:10:17;;;;;;;10.85;5.40;;;8.60;99.90;;;;;;5028109;28;20021;-71
2022/04/14 04:12:43;;;;;;;10.15;5.53;;;8.70;99.90;;;;;;5032864;28;20236;-72
2022/04/14 04:15:11;;;;;;;13.38;5.88;;;8.70;99.90;;;;;;5008503;28;20229;-72
2022/04/14 04:17:38;;;;;;;10.63;5.45;;;8.80;99.90;;;;;;5008814;28;20029;-71
2022/04/14 04:20:05;;;;;;;9.85;5.85;;;8.90;99.90;;;;;;5008915;28;20048;-72
2022/04/14 04:22:33;;;;;;;11.05;5.05;;;9.00;99.90;;;;;;5008047;28;20466;-71
2022/04/14 04:24:59;;;;;;;9.80;5.13;;;9.00;99.90;;;;;;5025047;28;20021;-72
2022/04/14 04:27:26;;;;;;;8.45;5.70;;;9.10;99.90;;;;;;4992364;28;20102;-71
2022/04/14 04:29:51;;;;;;;9.25;5.18;;;9.10;99.90;;;;;;5024859;28;20288;-72
2022/04/14 04:32:18;;;;;;;11.43;5.70;;;9.10;99.90;;;;;;5006500;28;20018;-72
2022/04/14 04:34:44;;;;;;;11.13;6.75;;;8.90;99.90;;;;;;5037834;28;20456;-71
2022/04/14 04:37:09;;;;;;;11.60;6.20;;;8.80;99.90;;;;;;5027690;28;20244;-72
2022/04/14 04:39:35;;;;;;;13.20;5.95;;;8.90;99.90;;;;;;5044482;28;20021;-71
2022/04/14 04:42:01;;;;;;;19.77;5.75;;;9.00;99.90;;;;;;5011254;28;20021;-71
2022/04/14 04:44:27;;;;;;;23.45;6.70;;;9.00;99.90;;;;;;5044409;28;20372;-72
2022/04/14 04:46:53;;;;;;;20.85;6.80;;;8.90;99.90;;;;;;5027281;28;20196;-72
2022/04/14 04:49:19;;;;;;;19.50;6.53;;;8.90;99.90;;;;;;5027768;28;20018;-72
2022/04/14 04:51:45;;;;;;;13.77;5.85;;;8.90;99.90;;;;;;5043796;28;20029;-70
2022/04/14 04:54:11;;;;;;;14.63;6.30;;;9.00;99.90;;;;;;5026742;28;20091;-71
2022/04/14 04:56:36;;;;;;;13.55;6.15;;;9.10;99.90;;;;;;5043951;28;20208;-72
2022/04/14 04:59:02;;;;;;;10.68;5.63;;;9.10;99.90;;;;;;5043731;28;20320;-72
2022/04/14 05:01:28;;;;;;;12.05;5.65;;;9.10;99.90;;;;;;5045351;28;20048;-71
2022/04/14 05:03:54;;;;;;;11.55;5.75;;;9.10;99.90;;;;;;5027467;28;20021;-72
2022/04/14 05:06:20;;;;;;;14.02;5.65;;;9.10;99.90;;;;;;5027778;28;20022;-72
2022/04/14 05:08:47;;;;;;;10.00;6.05;;;9.20;99.90;;;;;;5027259;28;20030;-72
2022/04/14 05:11:13;;;;;;;12.75;5.80;;;9.30;99.90;;;;;;5043379;28;20088;-72
2022/04/14 05:13:39;;;;;;;15.52;6.30;;;9.20;99.90;;;;;;5024390;28;20021;-71
2022/04/14 05:16:06;;;;;;;14.65;6.25;;;9.30;99.90;;;;;;5040093;28;20045;-71
2022/04/14 05:18:33;;;;;;;31.10;7.70;;;9.40;99.90;;;;;;5023784;28;20105;-72
2022/04/14 05:20:58;;;;;;;35.50;8.75;;;9.40;99.90;;;;;;5023641;28;20029;-72
2022/04/14 05:23:24;;;;;;;17.02;5.93;;;9.40;99.90;;;;;;5023699;28;20093;-72
2022/04/14 05:25:50;;;;;;;21.88;6.47;;;9.40;99.90;;;;;;5023763;28;20026;-71
2022/04/14 05:28:16;;;;;;;13.10;5.90;;;9.40;99.90;;;;;;5007182;28;20368;-71
2022/04/14 05:30:42;;;;;;;12.40;5.03;;;9.50;99.90;;;;;;5022524;28;20068;-71
2022/04/14 05:33:10;;;;;;;22.90;5.22;;;9.50;99.90;;;;;;5038615;28;20021;-72
2022/04/14 05:35:38;;;;;;;13.02;5.63;;;9.40;99.90;;;;;;5042843;28;20148;-72
2022/04/14 05:38:05;;;;;;;15.10;4.63;;;9.40;99.90;;;;;;5026861;28;20021;-72
2022/04/14 05:40:31;;;;;;;10.48;5.22;;;9.30;99.90;;;;;;5042850;28;20048;-72
2022/04/14 05:42:57;;;;;;;8.70;5.35;;;9.30;99.90;;;;;;5042773;28;20092;-71
2022/04/14 05:45:23;;;;;;;10.63;5.13;;;9.30;99.90;;;;;;5043128;28;20018;-72
2022/04/14 05:47:48;;;;;;;9.85;4.90;;;9.40;99.90;;;;;;5025990;28;20029;-71
2022/04/14 05:50:14;;;;;;;12.07;4.80;;;9.40;99.90;;;;;;5026533;28;20096;-72
2022/04/14 05:52:41;;;;;;;9.80;4.50;;;9.40;99.90;;;;;;5042347;28;20049;-71
2022/04/14 05:55:07;;;;;;;8.52;4.78;;;9.50;99.90;;;;;;5042635;28;20060;-71
2022/04/14 05:57:33;;;;;;;13.32;5.45;;;9.40;99.90;;;;;;5042967;28;20025;-72
2022/04/14 05:59:59;;;;;;;10.95;4.82;;;9.50;99.90;;;;;;5026518;28;20071;-71
2022/04/14 06:02:26;;;;;;;9.13;5.10;;;9.50;99.90;;;;;;5026249;28;20071;-72
2022/04/14 06:04:52;;;;;;;10.57;5.07;;;9.50;99.90;;;;;;5042870;28;20021;-72
2022/04/14 06:07:19;;;;;;;10.43;5.43;;;9.60;99.90;;;;;;5042664;28;20017;-72
2022/04/14 06:09:45;;;;;;;13.27;6.03;;;9.60;99.90;;;;;;5026565;28;20083;-72
2022/04/14 06:12:10;;;;;;;17.08;5.63;;;9.70;99.90;;;;;;5035411;28;20253;-72
2022/04/14 06:14:36;;;;;;;15.77;5.45;;;9.70;99.90;;;;;;5022577;28;20033;-71
2022/04/14 06:17:02;;;;;;;21.40;6.03;;;9.80;99.90;;;;;;5022482;28;20034;-71
2022/04/14 06:19:28;;;;;;;18.75;6.35;;;9.90;99.90;;;;;;5023253;28;20029;-72
2022/04/14 06:21:54;;;;;;;27.73;6.55;;;10.00;99.90;;;;;;5006341;28;20025;-71
2022/04/14 06:24:20;;;;;;;21.95;6.30;;;10.00;99.90;;;;;;5024014;28;20194;-72
2022/04/14 06:26:45;;;;;;;11.23;5.70;;;10.00;99.90;;;;;;5022918;28;20025;-72
2022/04/14 06:29:11;;;;;;;11.60;5.57;;;10.00;99.90;;;;;;5022602;28;20049;-72
2022/04/14 06:31:37;;;;;;;10.18;6.07;;;10.00;99.90;;;;;;5023807;28;20022;-72
2022/04/14 06:34:05;;;;;;;13.27;7.28;;;10.00;99.90;;;;;;5028650;28;20037;-72
2022/04/14 06:36:31;;;;;;;10.48;6.53;;;10.00;99.90;;;;;;5026200;28;20041;-72
2022/04/14 06:38:57;;;;;;;11.23;6.45;;;10.00;99.90;;;;;;5042156;28;20025;-71
2022/04/14 06:41:25;;;;;;;14.18;6.53;;;9.90;99.90;;;;;;5026019;28;20113;-72
2022/04/14 06:43:51;;;;;;;10.65;5.82;;;9.90;99.90;;;;;;5046555;28;20029;-72
2022/04/14 06:46:17;;;;;;;20.08;6.05;;;10.00;99.90;;;;;;5046066;28;20181;-72
2022/04/14 06:48:43;;;;;;;15.75;6.57;;;9.90;99.90;;;;;;5047693;28;20029;-72
2022/04/14 06:51:10;;;;;;;12.80;6.18;;;10.00;99.90;;;;;;5045853;28;20063;-72
2022/04/14 06:53:36;;;;;;;14.05;6.22;;;10.00;99.90;;;;;;5029300;28;20060;-72
2022/04/14 06:56:01;;;;;;;20.40;6.72;;;10.10;99.90;;;;;;5047258;28;20034;-72
2022/04/14 06:58:28;;;;;;;26.27;7.25;;;10.20;99.90;;;;;;5032398;28;20018;-72
2022/04/14 07:00:54;;;;;;;22.13;7.28;;;10.20;99.90;;;;;;5009909;28;20029;-72
2022/04/14 07:03:26;;;;;;;27.48;7.53;;;10.30;99.90;;;;;;5009636;28;20018;-73
2022/04/14 07:05:54;;;;;;;16.55;7.70;;;10.50;99.90;;;;;;5025910;28;20053;-73
2022/04/14 07:08:24;;;;;;;18.30;7.22;;;10.60;99.90;;;;;;5010108;28;20025;-73
2022/04/14 07:10:50;;;;;;;18.73;7.22;;;10.70;99.90;;;;;;5026264;28;20034;-72
2022/04/14 07:13:17;;;;;;;17.80;8.18;;;10.80;99.90;;;;;;5035133;28;20234;-73
2022/04/14 07:15:43;;;;;;;20.00;7.60;;;10.80;99.90;;;;;;5009675;28;20037;-72
2022/04/14 07:18:08;;;;;;;17.73;7.13;;;10.80;99.90;;;;;;5009294;28;20030;-73
2022/04/14 07:20:34;;;;;;;20.50;7.85;;;10.90;99.90;;;;;;5009678;28;20049;-73
2022/04/14 07:23:02;;;;;;;39.45;8.32;;;11.00;99.90;;;;;;5009367;28;20381;-72
2022/04/14 07:25:30;;;;;;;28.75;8.13;;;11.00;99.90;;;;;;5009693;28;20278;-73
2022/04/14 07:27:56;;;;;;;24.48;7.97;;;11.00;99.90;;;;;;5025987;28;20194;-72
2022/04/14 07:30:24;;;;;;;24.58;8.10;;;11.10;99.90;;;;;;5026974;28;20098;-72
2022/04/14 07:32:49;;;;;;;17.98;8.30;;;11.10;99.90;;;;;;5025187;28;20029;-72
2022/04/14 07:35:18;;;;;;;20.35;8.65;;;11.10;99.90;;;;;;5041337;28;20399;-72
2022/04/14 07:37:45;;;;;;;18.67;8.85;;;11.10;99.90;;;;;;5029187;28;20216;-72
2022/04/14 07:40:11;;;;;;;19.83;8.57;;;11.30;99.90;;;;;;5029000;28;20312;-73
2022/04/14 07:42:39;;;;;;;22.48;9.63;;;11.40;99.90;;;;;;5028642;28;20045;-73
2022/04/14 07:45:06;;;;;;;18.70;9.20;;;11.60;99.90;;;;;;5029015;28;20040;-73
2022/04/14 07:47:32;;;;;;;21.85;9.55;;;11.60;99.90;;;;;;5044845;28;20068;-73
2022/04/14 07:49:58;;;;;;;18.45;9.10;;;11.70;99.90;;;;;;5045231;28;20048;-73
2022/04/14 07:52:24;;;;;;;14.15;8.43;;;11.70;99.90;;;;;;5027592;28;20056;-73
2022/04/14 07:54:49;;;;;;;20.58;8.63;;;11.70;99.90;;;;;;5028522;28;20075;-73
2022/04/14 07:57:15;;;;;;;15.45;8.35;;;11.70;99.90;;;;;;5042235;28;20209;-73
2022/04/14 07:59:41;;;;;;;22.00;8.63;;;11.80;99.90;;;;;;5025296;28;20022;-72
2022/04/14 08:02:07;;;;;;;19.70;9.10;;;11.90;99.90;;;;;;5024974;28;20040;-72
2022/04/14 08:04:34;;;;;;;18.90;8.88;;;12.00;99.90;;;;;;5008935;28;20030;-72
2022/04/14 08:07:00;;;;;;;21.20;9.80;;;12.10;99.90;;;;;;5008622;28;20033;-72
2022/04/14 08:09:26;;;;;;;18.90;9.32;;;12.30;99.90;;;;;;5025243;28;20030;-72
2022/04/14 08:11:51;;;;;;;18.02;8.77;;;12.40;99.90;;;;;;5010612;28;20321;-71
2022/04/14 08:14:17;;;;;;;17.58;9.00;;;12.60;99.90;;;;;;5024971;28;20064;-72
2022/04/14 08:16:43;;;;;;;23.45;8.98;;;12.80;99.90;;;;;;5040986;28;20324;-72
2022/04/14 08:19:09;;;;;;;20.02;8.63;;;13.00;99.90;;;;;;5024801;28;20030;-71
2022/04/14 08:21:34;;;;;;;17.52;8.57;;;13.10;99.90;;;;;;5024650;28;20092;-72
2022/04/14 08:24:02;;;;;;;20.27;8.82;;;13.30;99.90;;;;;;5024473;28;20026;-72
2022/04/14 08:26:27;;;;;;;14.13;7.78;;;13.40;99.90;;;;;;5025960;28;20018;-73
2022/04/14 08:28:55;;;;;;;17.77;7.93;;;13.50;99.90;;;;;;5024556;28;20033;-73
2022/04/14 08:31:21;;;;;;;19.15;7.25;;;13.50;99.90;;;;;;5041281;28;20022;-72
2022/04/14 08:33:49;;;;;;;15.65;7.55;;;13.60;99.90;;;;;;5024309;28;20059;-73
2022/04/14 08:36:16;;;;;;;17.48;7.97;;;13.70;99.90;;;;;;5024403;28;20018;-73
2022/04/14 08:38:45;;;;;;;16.60;7.72;;;13.60;99.90;;;;;;5008084;28;20064;-73
2022/04/14 08:41:13;;;;;;;11.10;7.25;;;13.60;99.90;;;;;;5008588;28;20093;-73
2022/04/14 08:43:47;;;;;;;18.05;7.55;;;13.70;99.90;;;;;;5024496;28;20030;-74
2022/04/14 08:46:14;;;;;;;11.35;6.07;;;13.70;99.90;;;;;;5011824;28;20017;-73
2022/04/14 08:48:42;;;;;;;12.38;5.65;;;13.90;99.90;;;;;;5044177;28;20048;-72
2022/04/14 08:51:10;;;;;;;14.32;5.38;;;14.00;99.90;;;;;;5043658;28;20033;-73
2022/04/14 08:53:38;;;;;;;13.35;5.60;;;13.90;99.90;;;;;;5044872;28;20053;-73
2022/04/14 08:56:06;;;;;;;11.88;5.38;;;14.00;99.90;;;;;;5044011;28;20029;-73
2022/04/14 08:58:32;;;;;;;9.88;5.05;;;14.00;99.90;;;;;;5023757;28;20026;-73
2022/04/14 09:00:59;;;;;;;14.57;5.57;;;14.00;99.90;;;;;;5024493;28;20026;-73
2022/04/14 09:03:27;;;;;;;15.90;6.47;;;14.30;99.90;;;;;;5023884;28;20029;-73
2022/04/14 09:05:55;;;;;;;18.45;6.43;;;14.50;99.90;;;;;;5023378;28;20300;-73
2022/04/14 09:08:21;;;;;;;14.68;5.90;;;14.70;99.90;;;;;;5024205;28;20205;-73
2022/04/14 09:10:48;;;;;;;13.07;5.35;;;14.90;99.90;;;;;;5007620;28;20018;-75
2022/04/14 09:13:15;;;;;;;11.55;5.35;;;15.10;99.90;;;;;;5022903;28;20041;-73
2022/04/14 09:15:41;;;;;;;13.27;6.05;;;15.20;99.90;;;;;;5044091;28;20055;-74
2022/04/14 09:18:08;;;;;;;11.50;5.40;;;15.10;99.80;;;;;;5026759;28;20215;-73
2022/04/14 09:20:37;;;;;;;16.88;5.68;;;15.20;99.90;;;;;;5027122;28;20029;-74
2022/04/14 09:23:25;;;;;;;11.70;5.28;;;15.30;99.70;;;;;;5043603;28;20312;-74
2022/04/14 09:26:06;;;;;;;12.23;4.82;;;15.30;99.50;;;;;;5030308;28;20025;-74
2022/04/14 09:28:33;;;;;;;13.95;4.65;;;15.30;99.60;;;;;;5026878;28;20028;-72
2022/04/14 09:31:07;;;;;;;12.25;3.90;;;15.30;99.30;;;;;;5043370;28;20021;-74
2022/04/14 09:33:35;;;;;;;8.50;3.90;;;15.40;99.80;;;;;;5026168;28;20021;-73
2022/04/14 09:36:22;;;;;;;11.13;3.58;;;15.50;99.40;;;;;;5025247;28;20060;-72
2022/04/14 09:39:01;;;;;;;9.00;3.55;;;15.90;99.00;;;;;;5029624;28;20049;-72
2022/04/14 09:41:38;;;;;;;9.48;3.13;;;16.10;98.60;;;;;;5043555;28;20021;-73
2022/04/14 09:44:08;;;;;;;9.45;3.40;;;16.20;98.20;;;;;;5027134;28;20033;-73
2022/04/14 09:46:35;;;;;;;10.77;3.05;;;16.20;98.10;;;;;;5043713;28;20044;-73
2022/04/14 09:49:08;;;;;;;9.52;3.08;;;16.30;97.70;;;;;;5042967;28;20021;-73
2022/04/14 09:51:36;;;;;;;7.45;2.97;;;16.10;98.10;;;;;;5026805;28;20581;-74
2022/04/14 09:54:12;;;;;;;6.40;2.65;;;16.30;98.10;;;;;;5026219;28;20057;-74
2022/04/14 09:56:41;;;;;;;7.95;3.10;;;16.40;97.70;;;;;;5044446;28;20059;-74
2022/04/14 09:59:08;;;;;;;6.93;2.53;;;16.40;97.80;;;;;;5042631;28;20331;-74
2022/04/14 10:01:34;;;;;;;8.80;3.22;;;16.50;97.60;;;;;;5026215;28;20100;-74
2022/04/14 10:04:01;;;;;;;9.85;3.97;;;16.60;97.50;;;;;;5043875;28;20255;-74
2022/04/14 10:06:27;;;;;;;11.52;4.32;;;16.40;97.60;;;;;;5042888;28;20023;-73
2022/04/14 10:08:52;;;;;;;12.50;3.95;;;16.60;97.80;;;;;;5026313;28;20029;-73
2022/04/14 10:11:37;;;;;;;7.18;3.65;;;16.50;97.70;;;;;;5026430;28;20028;-74
2022/04/14 10:14:12;;;;;;;18.50;4.53;;;16.50;98.00;;;;;;5007154;28;20034;-73
2022/04/14 10:16:39;;;;;;;13.73;3.85;;;16.80;97.40;;;;;;5022639;28;20045;-73
2022/04/14 10:19:08;;;;;;;9.57;3.95;;;17.20;97.00;;;;;;5022750;28;20026;-73
2022/04/14 10:21:35;;;;;;;22.10;4.65;;;17.50;96.70;;;;;;5024288;28;20036;-74
2022/04/14 10:24:02;;;;;;;10.02;4.00;;;17.80;96.20;;;;;;5006290;28;20032;-73
2022/04/14 10:26:28;;;;;;;8.35;4.32;;;17.80;96.20;;;;;;5006552;28;20017;-73
2022/04/14 10:28:55;;;;;;;13.18;4.63;;;17.60;96.40;;;;;;5022810;28;20321;-74
2022/04/14 10:31:21;;;;;;;11.02;4.32;;;17.60;96.30;;;;;;5023533;28;20026;-73
2022/04/14 10:33:48;;;;;;;13.10;4.72;;;17.60;96.10;;;;;;5023137;28;20087;-73
2022/04/14 10:36:14;;;;;;;8.85;4.32;;;17.80;96.00;;;;;;5020637;28;20026;-74
2022/04/14 10:38:44;;;;;;;11.48;4.72;;;17.40;96.30;;;;;;5023515;28;20092;-74
2022/04/14 10:41:18;;;;;;;14.35;5.18;;;17.30;96.90;;;;;;4990615;28;20024;-74
2022/04/14 10:43:46;;;;;;;16.30;5.55;;;17.70;96.90;;;;;;4990933;28;20308;-73
2022/04/14 10:46:15;;;;;;;8.52;4.32;;;18.00;96.00;;;;;;5025291;28;20017;-72
2022/04/14 10:48:42;;;;;;;13.05;4.50;;;18.00;96.00;;;;;;5042177;28;20045;-72
2022/04/14 10:51:28;;;;;;;21.40;5.43;;;18.00;95.80;;;;;;5026236;28;20100;-72
2022/04/14 10:54:08;;;;;;;10.77;4.45;;;18.00;95.60;;;;;;5025440;28;20041;-72
2022/04/14 10:56:49;;;;;;;6.75;3.33;;;17.80;95.80;;;;;;5025643;28;20236;-72
2022/04/14 10:59:38;;;;;;;12.77;3.63;;;17.80;95.50;;;;;;5022399;28;20064;-73
2022/04/14 11:02:04;;;;;;;14.50;4.53;;;17.80;95.20;;;;;;5021994;28;20022;-72
2022/04/14 11:04:52;;;;;;;10.13;3.80;;;17.90;95.20;;;;;;5021736;28;20323;-74
2022/04/14 11:07:21;;;;;;;7.53;3.15;;;17.90;95.50;;;;;;5022407;28;20081;-74
2022/04/14 11:09:54;;;;;;;10.00;4.10;;;18.20;95.00;;;;;;5006010;28;20190;-73
2022/04/14 11:12:50;;;;;;;11.63;3.97;;;18.30;94.50;;;;;;5021740;28;20043;-73
2022/04/14 11:15:30;;;;;;;20.23;3.83;;;18.20;94.60;;;;;;5009447;28;20244;-73
2022/04/14 11:18:04;;;;;;;5.40;2.10;;;17.90;94.60;;;;;;5005340;28;20190;-74
2022/04/14 11:20:51;;;;;;;8.45;2.55;;;17.90;94.10;;;;;;5005757;28;20273;-73
2022/04/14 11:23:24;;;;;;;25.05;4.57;;;18.30;94.00;;;;;;5008602;28;20046;-74
2022/04/14 11:25:52;;;;;;;25.20;3.60;;;18.60;93.40;;;;;;5023016;28;20033;-73
2022/04/14 11:28:26;;;;;;;9.95;1.50;;;18.80;92.90;;;;;;5007644;28;20097;-73
2022/04/14 11:30:57;;;;;;;8.13;1.75;;;18.80;91.60;;;;;;5009202;28;20021;-73
2022/04/14 11:33:33;;;;;;;5.30;1.57;;;18.60;91.80;;;;;;5025218;28;20113;-73
2022/04/14 11:36:19;;;;;;;4.68;1.50;;;18.40;92.30;;;;;;5010408;28;20113;-73
2022/04/14 11:39:04;;;;;;;8.20;1.75;;;18.20;92.20;;;;;;5010412;28;20025;-72
2022/04/14 11:41:50;;;;;;;11.85;1.92;;;18.20;92.40;;;;;;5025024;28;20026;-73
2022/04/14 11:44:20;;;;;;;7.70;1.40;;;18.40;92.00;;;;;;5011855;28;20025;-73
2022/04/14 11:46:52;;;;;;;5.15;0.90;;;18.50;91.50;;;;;;5032612;28;20025;-74
2022/04/14 11:49:21;;;;;;;5.75;0.70;;;18.40;90.50;;;;;;5028388;28;20029;-74
2022/04/14 11:51:49;;;;;;;6.30;0.90;;;18.20;90.20;;;;;;5028384;28;20052;-74
2022/04/14 11:54:37;;;;;;;3.42;0.80;;;18.30;89.70;;;;;;5044712;28;20049;-74
2022/04/14 11:57:07;;;;;;;7.22;0.90;;;18.30;89.10;;;;;;5042848;28;20040;-72
2022/04/14 11:59:54;;;;;;;4.25;1.00;;;18.40;89.30;;;;;;5009170;28;20017;-72
2022/04/14 12:02:23;;;;;;;11.05;1.42;;;18.30;88.70;;;;;;5008717;28;20268;-73
2022/04/14 12:04:51;;;;;;;4.35;1.05;;;18.10;90.10;;;;;;5008072;28;20022;-73
2022/04/14 12:07:18;;;;;;;4.80;0.65;;;18.20;89.70;;;;;;5025031;28;20025;-74
2022/04/14 12:09:44;;;;;;;4.35;0.52;;;18.40;86.90;;;;;;5008286;28;20248;-73
2022/04/14 12:12:14;;;;;;;6.07;0.60;;;18.50;85.90;;;;;;5031358;28;20313;-75
2022/04/14 12:14:42;;;;;;;2.95;0.57;;;18.50;85.30;;;;;;5028436;28;20029;-74
2022/04/14 12:17:08;;;;;;;4.20;0.68;;;18.60;84.50;;;;;;5045658;28;20093;-74
2022/04/14 12:19:43;;;;;;;2.80;0.40;;;18.60;84.00;;;;;;5044596;28;20026;-73
2022/04/14 12:22:10;;;;;;;1.70;0.65;;;18.60;84.60;;;;;;5028423;28;20021;-74
2022/04/14 12:24:36;;;;;;;4.90;0.55;;;18.80;83.70;;;;;;5027832;28;20062;-72
2022/04/14 12:27:03;;;;;;;2.22;0.60;;;19.00;83.70;;;;;;5044488;28;20045;-74
2022/04/14 12:29:28;;;;;;;2.03;0.52;;;19.10;83.70;;;;;;5045498;28;20104;-72
2022/04/14 12:31:56;;;;;;;1.65;0.52;;;19.30;83.40;;;;;;5027817;28;20021;-73
2022/04/14 12:34:23;;;;;;;2.55;0.80;;;19.30;85.10;;;;;;5040734;28;20033;-73
2022/04/14 12:37:06;;;;;;;8.38;0.70;;;19.30;85.30;;;;;;5024653;28;20121;-73
2022/04/14 12:39:31;;;;;;;4.70;0.73;;;19.30;86.40;;;;;;5024373;28;20261;-72
2022/04/14 12:41:59;;;;;;;4.40;1.00;;;19.20;86.30;;;;;;5008087;28;20030;-73
2022/04/14 12:44:25;;;;;;;4.28;0.98;;;19.20;87.70;;;;;;5024687;28;20064;-73
2022/04/14 12:46:52;;;;;;;3.30;0.82;;;19.00;87.70;;;;;;5016216;28;20057;-73